Lodge Corner, Arkansas
Current Conditions -  °F | °C
As of 2:15 PM on Friday 19 Dec 2014 (Local Time) from KSGT Reporting Station
Overcast Overcast  
Wind Chill: 39°   Ceiling: 1800
Heat Index: 45°   Visibility: NA
Dew Point: 36°   Wind: 10mph
Humidity: 71%   Direction: 40°NE
Pressure: 30.2"   Gusts: NA
Location:  34.3615°N, 91.5213°W
Report Text: KSGT 192015Z 04009KT BKN018 BKN033 OVC080 07/02 A3020 RMK AO1
Loading
Personal Weather Stations






























Interactive Weather Map New forecast layout! Learn more

10-Day Weather Forecast

Advertisements
Track Severe Weather on mobile